Time;durP1;ratioP1;P1;durP2;ratioP2;P2;SDS_P1;SDS_P2;PMS_P1;PMS_P2;Temp;Humidity;BMP_temperature;BMP_pressure;BME280_temperature;BME280_humidity;BME280_pressure;Samples;Min_cycle;Max_cycle;Signal;HPM_P1;HPM_P2
2022/10/04 00:02:01;;;;;;;9.98;5.85;;;;;;;;;;5128505;27;20047;-63
2022/10/04 00:04:34;;;;;;;12.57;5.80;;;;;;;;;;5144785;27;20479;-62
2022/10/04 00:07:00;;;;;;;9.63;5.63;;;;;;;;;;5143254;27;20058;-63
2022/10/04 00:09:34;;;;;;;10.35;6.30;;;;;;;;;;5140789;27;21099;-63
2022/10/04 00:12:01;;;;;;;16.40;6.93;;;;;;;;;;5141794;27;20060;-63
2022/10/04 00:14:30;;;;;;;11.02;6.07;;;;;;;;;;5124186;27;20482;-63
2022/10/04 00:16:58;;;;;;;14.05;6.32;;;;;;;;;;5143573;27;20051;-63
2022/10/04 00:19:45;;;;;;;11.70;6.25;;;;;;;;;;5145364;27;20477;-62
2022/10/04 00:22:13;;;;;;;13.15;6.88;;;;;;;;;;5144071;27;20051;-63
2022/10/04 00:24:58;;;;;;;19.10;7.43;;;;;;;;;;5144530;27;20052;-63
2022/10/04 00:27:26;;;;;;;19.10;6.97;;;;;;;;;;5138425;27;20058;-62
2022/10/04 00:30:01;;;;;;;13.93;6.03;;;;;;;;;;5143028;27;20054;-61
2022/10/04 00:32:27;;;;;;;12.23;6.78;;;;;;;;;;5123444;27;20054;-62
2022/10/04 00:34:54;;;;;;;15.05;6.45;;;;;;;;;;5126973;27;20046;-63
2022/10/04 00:37:21;;;;;;;15.80;6.80;;;;;;;;;;5125491;27;20043;-62
2022/10/04 00:39:47;;;;;;;11.90;5.95;;;;;;;;;;5144500;27;20051;-63
2022/10/04 00:42:16;;;;;;;10.60;6.05;;;;;;;;;;5130942;27;20047;-62
2022/10/04 00:44:48;;;;;;;14.18;6.95;;;;;;;;;;5141073;27;20051;-62
2022/10/04 00:47:23;;;;;;;12.73;7.05;;;;;;;;;;5139745;27;20052;-62
2022/10/04 00:49:53;;;;;;;14.98;6.30;;;;;;;;;;5124800;27;20051;-62
2022/10/04 00:52:22;;;;;;;15.88;6.80;;;;;;;;;;5144492;27;20051;-63
2022/10/04 00:54:50;;;;;;;15.65;6.25;;;;;;;;;;5135086;27;20049;-63
2022/10/04 00:57:20;;;;;;;17.95;7.22;;;;;;;;;;5134741;27;20202;-63
2022/10/04 00:59:51;;;;;;;16.13;7.20;;;;;;;;;;5144978;27;20073;-62
2022/10/04 01:02:25;;;;;;;15.90;7.95;;;;;;;;;;5142851;27;20051;-62
2022/10/04 01:04:54;;;;;;;12.65;7.28;;;;;;;;;;5143410;27;20054;-62
2022/10/04 01:07:27;;;;;;;13.40;6.95;;;;;;;;;;5133605;27;20047;-63
2022/10/04 01:09:56;;;;;;;17.30;7.93;;;;;;;;;;5135159;27;20240;-62
2022/10/04 01:12:43;;;;;;;16.85;8.27;;;;;;;;;;5138377;27;20059;-63
2022/10/04 01:15:13;;;;;;;10.63;7.03;;;;;;;;;;5141950;27;20044;-62
2022/10/04 01:17:39;;;;;;;13.10;7.30;;;;;;;;;;5144830;27;20227;-62
2022/10/04 01:20:26;;;;;;;11.90;7.05;;;;;;;;;;5127788;27;20060;-62
2022/10/04 01:22:54;;;;;;;14.18;7.68;;;;;;;;;;5144190;27;20047;-66
2022/10/04 01:25:39;;;;;;;12.57;6.97;;;;;;;;;;5138418;27;20052;-64
2022/10/04 01:28:05;;;;;;;11.93;7.65;;;;;;;;;;5143124;27;20047;-63
2022/10/04 01:30:31;;;;;;;13.60;6.65;;;;;;;;;;5142040;27;20135;-64
2022/10/04 01:32:58;;;;;;;17.38;8.82;;;;;;;;;;5141942;27;20054;-64
2022/10/04 01:35:25;;;;;;;8.70;6.78;;;;;;;;;;5129812;27;20048;-61
2022/10/04 01:37:53;;;;;;;13.45;6.55;;;;;;;;;;5131392;27;20051;-64
2022/10/04 01:40:19;;;;;;;16.15;9.43;;;;;;;;;;5140303;27;20050;-63
2022/10/04 01:42:49;;;;;;;13.10;7.95;;;;;;;;;;5144621;27;20233;-64
2022/10/04 01:45:37;;;;;;;19.08;7.60;;;;;;;;;;5129318;27;20078;-64
2022/10/04 01:48:05;;;;;;;13.30;8.07;;;;;;;;;;5123150;27;20607;-64
2022/10/04 01:50:34;;;;;;;14.70;7.72;;;;;;;;;;5123983;27;20058;-64
2022/10/04 01:53:09;;;;;;;11.35;7.50;;;;;;;;;;5139734;27;20066;-64
2022/10/04 01:55:35;;;;;;;;;;;;;;;;;;5121948;27;20464;-64
2022/10/04 01:58:08;;;;;;;11.43;7.05;;;;;;;;;;5140285;27;44720;-64
2022/10/04 02:00:37;;;;;;;13.25;7.63;;;;;;;;;;5132808;27;20512;-62
2022/10/04 02:03:07;;;;;;;10.05;7.05;;;;;;;;;;5142410;27;20648;-63
2022/10/04 02:05:39;;;;;;;20.85;8.20;;;;;;;;;;5137012;27;20071;-62
2022/10/04 02:08:07;;;;;;;21.02;7.88;;;;;;;;;;5139603;27;20374;-64
2022/10/04 02:10:35;;;;;;;15.93;7.68;;;;;;;;;;5142218;27;20055;-62
2022/10/04 02:13:09;;;;;;;16.48;7.43;;;;;;;;;;5143574;27;20051;-63
2022/10/04 02:15:38;;;;;;;11.82;7.80;;;;;;;;;;5143593;27;20055;-62
2022/10/04 02:18:16;;;;;;;15.93;8.27;;;;;;;;;;5130510;27;20629;-62
2022/10/04 02:20:42;;;;;;;13.95;7.70;;;;;;;;;;5126382;27;20047;-63
2022/10/04 02:23:10;;;;;;;13.82;7.43;;;;;;;;;;5124889;27;20055;-63
2022/10/04 02:25:36;;;;;;;14.80;7.80;;;;;;;;;;5134315;27;20421;-62
2022/10/04 02:28:12;;;;;;;13.77;7.68;;;;;;;;;;5142228;27;20528;-62
2022/10/04 02:30:40;;;;;;;20.42;8.02;;;;;;;;;;5135660;27;20052;-63
2022/10/04 02:33:07;;;;;;;15.98;7.78;;;;;;;;;;5139294;27;20055;-62
2022/10/04 02:35:42;;;;;;;13.00;7.63;;;;;;;;;;5125260;27;20488;-62
2022/10/04 02:38:11;;;;;;;13.48;7.40;;;;;;;;;;5141996;27;20408;-62
2022/10/04 02:40:52;;;;;;;13.77;8.35;;;;;;;;;;5136340;27;20058;-62
2022/10/04 02:43:21;;;;;;;11.95;8.02;;;;;;;;;;5125070;27;20449;-63
2022/10/04 02:45:50;;;;;;;11.45;7.80;;;;;;;;;;5142752;27;20078;-62
2022/10/04 02:48:35;;;;;;;13.20;8.25;;;;;;;;;;5141684;27;20573;-62
2022/10/04 02:51:10;;;;;;;11.73;8.05;;;;;;;;;;5137314;27;20051;-62
2022/10/04 02:53:44;;;;;;;12.77;8.10;;;;;;;;;;5142159;27;20054;-63
2022/10/04 02:56:11;;;;;;;12.07;8.00;;;;;;;;;;5141648;27;20452;-63
2022/10/04 02:58:38;;;;;;;14.32;7.88;;;;;;;;;;5141473;27;20055;-62
2022/10/04 03:01:05;;;;;;;13.10;7.78;;;;;;;;;;5129047;27;20062;-63
2022/10/04 03:03:33;;;;;;;14.63;8.40;;;;;;;;;;5129844;27;20767;-62
2022/10/04 03:06:02;;;;;;;9.85;7.78;;;;;;;;;;5140000;27;20055;-63
2022/10/04 03:08:31;;;;;;;17.67;8.95;;;;;;;;;;5140687;27;20051;-63
2022/10/04 03:10:58;;;;;;;14.57;7.97;;;;;;;;;;5137535;27;20047;-63
2022/10/04 03:13:25;;;;;;;14.30;8.45;;;;;;;;;;5139926;27;20278;-64
2022/10/04 03:15:51;;;;;;;17.52;8.50;;;;;;;;;;5129165;27;20532;-62
2022/10/04 03:18:18;;;;;;;14.65;9.30;;;;;;;;;;5135359;27;20078;-62
2022/10/04 03:20:45;;;;;;;13.90;8.85;;;;;;;;;;5135461;27;20055;-63
2022/10/04 03:23:14;;;;;;;16.20;9.25;;;;;;;;;;5143299;27;20051;-63
2022/10/04 03:25:47;;;;;;;16.73;8.70;;;;;;;;;;5126987;27;20138;-62
2022/10/04 03:28:13;;;;;;;15.80;8.70;;;;;;;;;;5140582;27;20491;-62
2022/10/04 03:30:42;;;;;;;14.95;9.63;;;;;;;;;;5137155;27;20228;-61
2022/10/04 03:33:14;;;;;;;17.67;10.15;;;;;;;;;;5141501;27;20142;-62
2022/10/04 03:35:40;;;;;;;15.02;9.63;;;;;;;;;;5137129;27;20645;-62
2022/10/04 03:38:07;;;;;;;18.15;10.90;;;;;;;;;;5127837;27;20047;-63
2022/10/04 03:40:36;;;;;;;16.75;9.95;;;;;;;;;;5127525;27;20514;-62
2022/10/04 03:43:04;;;;;;;16.23;11.02;;;;;;;;;;5138858;27;20057;-62
2022/10/04 03:45:31;;;;;;;16.45;10.15;;;;;;;;;;5119741;27;20070;-61
2022/10/04 03:48:03;;;;;;;21.27;11.02;;;;;;;;;;5121736;27;20126;-62
2022/10/04 03:50:36;;;;;;;16.85;10.10;;;;;;;;;;5126830;27;20497;-62
2022/10/04 03:53:26;;;;;;;15.20;9.95;;;;;;;;;;5139773;27;20591;-65
2022/10/04 03:55:52;;;;;;;15.98;11.23;;;;;;;;;;5129756;27;20140;-62
2022/10/04 03:58:19;;;;;;;17.98;10.45;;;;;;;;;;5142489;27;20051;-62
2022/10/04 04:01:05;;;;;;;14.98;10.05;;;;;;;;;;5140466;27;20519;-62
2022/10/04 04:03:40;;;;;;;14.23;10.32;;;;;;;;;;5126004;27;20063;-63
2022/10/04 04:06:13;;;;;;;17.13;10.48;;;;;;;;;;5130938;27;20500;-62
2022/10/04 04:08:41;;;;;;;17.38;10.38;;;;;;;;;;5134800;27;20535;-62
2022/10/04 04:11:17;;;;;;;17.35;11.25;;;;;;;;;;5126356;27;20058;-62
2022/10/04 04:13:50;;;;;;;18.85;10.75;;;;;;;;;;5139780;27;20051;-62
2022/10/04 04:16:19;;;;;;;15.88;10.35;;;;;;;;;;5141215;27;20681;-62
2022/10/04 04:18:47;;;;;;;15.65;10.65;;;;;;;;;;5141052;27;20057;-62
2022/10/04 04:21:17;;;;;;;18.27;11.45;;;;;;;;;;5142692;27;20055;-63
2022/10/04 04:23:47;;;;;;;12.60;10.20;;;;;;;;;;5143117;27;20059;-62
2022/10/04 04:26:16;;;;;;;15.63;10.80;;;;;;;;;;5124989;27;20109;-62
2022/10/04 04:28:49;;;;;;;17.85;11.00;;;;;;;;;;5139818;27;20493;-62
2022/10/04 04:31:15;;;;;;;14.45;10.43;;;;;;;;;;5136355;27;20460;-62
2022/10/04 04:33:43;;;;;;;19.98;11.77;;;;;;;;;;5143904;27;20103;-62
2022/10/04 04:36:11;;;;;;;14.80;10.90;;;;;;;;;;5145674;27;20108;-63
2022/10/04 04:39:33;;;;;;;20.10;11.38;;;;;;;;;;5124070;27;20501;-62
2022/10/04 04:41:28;;;;;;;12.25;10.32;;;;;;;;;;5132010;27;20180;-63
2022/10/04 04:43:54;;;;;;;17.52;11.43;;;;;;;;;;5144138;27;20051;-62
2022/10/04 04:46:21;;;;;;;16.17;10.73;;;;;;;;;;5142256;27;20047;-62
2022/10/04 04:48:56;;;;;;;14.57;10.38;;;;;;;;;;5142732;27;20058;-61
2022/10/04 04:51:23;;;;;;;18.48;11.90;;;;;;;;;;5143459;27;20165;-62
2022/10/04 04:53:51;;;;;;;18.95;10.88;;;;;;;;;;5136552;27;20054;-62
2022/10/04 04:56:20;;;;;;;21.27;11.02;;;;;;;;;;5142659;27;20596;-63
2022/10/04 04:58:47;;;;;;;14.65;10.45;;;;;;;;;;5144175;27;20495;-62
2022/10/04 05:01:22;;;;;;;19.00;10.75;;;;;;;;;;5140736;27;20501;-63
2022/10/04 05:03:58;;;;;;;18.63;10.50;;;;;;;;;;5137256;27;20055;-62
2022/10/04 05:06:26;;;;;;;14.43;10.75;;;;;;;;;;5135574;27;20491;-61
2022/10/04 05:08:52;;;;;;;14.00;10.80;;;;;;;;;;5143299;27;20503;-62
2022/10/04 05:11:21;;;;;;;21.98;10.82;;;;;;;;;;5139874;27;20052;-62
2022/10/04 05:13:59;;;;;;;20.27;11.30;;;;;;;;;;5124658;27;20062;-61
2022/10/04 05:16:44;;;;;;;22.08;10.73;;;;;;;;;;5125245;27;20052;-62
2022/10/04 05:19:23;;;;;;;13.83;10.53;;;;;;;;;;5143360;27;20054;-61
2022/10/04 05:21:54;;;;;;;16.90;10.65;;;;;;;;;;5137881;27;20047;-62
2022/10/04 05:24:20;;;;;;;18.83;11.05;;;;;;;;;;5127926;27;20154;-63
2022/10/04 05:26:58;;;;;;;17.67;11.98;;;;;;;;;;5125660;27;20411;-62
2022/10/04 05:29:31;;;;;;;12.95;10.57;;;;;;;;;;5136160;27;20047;-62
2022/10/04 05:32:20;;;;;;;20.80;11.13;;;;;;;;;;5143178;27;20138;-63
2022/10/04 05:34:48;;;;;;;23.92;11.27;;;;;;;;;;5144806;27;20549;-62
2022/10/04 05:37:52;;;;;;;16.35;11.05;;;;;;;;;;5129284;27;20051;-62
2022/10/04 05:40:28;;;;;;;20.05;10.73;;;;;;;;;;5078408;28;20603;-61
2022/10/04 05:42:57;;;;;;;19.73;11.40;;;;;;;;;;5076513;28;20513;-61
2022/10/04 05:45:25;;;;;;;18.50;12.77;;;;;;;;;;5051077;28;20471;-61
2022/10/04 05:47:56;;;;;;;18.65;11.93;;;;;;;;;;5069632;28;20092;-62
2022/10/04 05:50:28;;;;;;;17.98;10.68;;;;;;;;;;5068757;28;20049;-62
2022/10/04 05:53:06;;;;;;;18.15;11.27;;;;;;;;;;5069421;28;20048;-62
2022/10/04 05:55:44;;;;;;;17.67;11.00;;;;;;;;;;5075606;28;20053;-62
2022/10/04 05:58:29;;;;;;;25.90;11.77;;;;;;;;;;5070912;28;20083;-62
2022/10/04 06:01:02;;;;;;;17.67;10.90;;;;;;;;;;5077355;28;20052;-62
2022/10/04 06:03:31;;;;;;;15.88;11.00;;;;;;;;;;5071592;28;20100;-63
2022/10/04 06:06:04;;;;;;;16.23;11.85;;;;;;;;;;5078141;28;20045;-63
2022/10/04 06:08:55;;;;;;;15.88;11.18;;;;;;;;;;5077536;28;20063;-62
2022/10/04 06:11:21;;;;;;;18.83;10.70;;;;;;;;;;5073947;28;20060;-62
2022/10/04 06:14:08;;;;;;;20.73;11.63;;;;;;;;;;5077654;27;20555;-63
2022/10/04 06:16:40;;;;;;;16.63;12.32;;;;;;;;;;5094186;27;20575;-63
2022/10/04 06:19:25;;;;;;;15.90;10.80;;;;;;;;;;5137149;27;20047;-62
2022/10/04 06:22:15;;;;;;;13.60;11.30;;;;;;;;;;5142831;27;20055;-62
2022/10/04 06:24:55;;;;;;;19.63;11.95;;;;;;;;;;5117234;27;20047;-61
2022/10/04 06:27:28;;;;;;;16.60;11.10;;;;;;;;;;5134851;27;20050;-61
2022/10/04 06:29:58;;;;;;;19.95;11.70;;;;;;;;;;5134186;27;20063;-61
2022/10/04 06:32:34;;;;;;;15.93;11.23;;;;;;;;;;5130029;27;20051;-62
2022/10/04 06:35:08;;;;;;;16.90;10.95;;;;;;;;;;5127870;27;20054;-63
2022/10/04 06:37:50;;;;;;;18.88;12.43;;;;;;;;;;5128011;27;20047;-62
2022/10/04 06:40:36;;;;;;;15.02;10.68;;;;;;;;;;5119547;27;20520;-62
2022/10/04 06:43:11;;;;;;;18.77;11.57;;;;;;;;;;5130042;27;20052;-62
2022/10/04 06:45:46;;;;;;;16.50;11.23;;;;;;;;;;5139056;27;20062;-61
2022/10/04 06:48:31;;;;;;;15.98;11.18;;;;;;;;;;5125185;27;20873;-61
2022/10/04 06:50:57;;;;;;;15.32;11.25;;;;;;;;;;5121426;27;20073;-63
2022/10/04 06:53:43;;;;;;;16.88;11.43;;;;;;;;;;5123312;27;20052;-62
2022/10/04 06:56:22;;;;;;;16.43;11.77;;;;;;;;;;5137541;27;20504;-62
2022/10/04 06:58:52;;;;;;;19.70;11.35;;;;;;;;;;5140495;27;20066;-62
2022/10/04 07:01:31;;;;;;;17.50;11.32;;;;;;;;;;5131289;27;20047;-63
2022/10/04 07:04:01;;;;;;;19.73;10.57;;;;;;;;;;5127544;27;20467;-62
2022/10/04 07:06:50;;;;;;;16.95;10.82;;;;;;;;;;5123745;27;20044;-63
2022/10/04 07:09:22;;;;;;;15.80;11.02;;;;;;;;;;5140067;27;20043;-63
2022/10/04 07:11:52;;;;;;;16.65;10.40;;;;;;;;;;5140819;27;20059;-62
2022/10/04 07:14:27;;;;;;;18.60;10.25;;;;;;;;;;5131643;27;20044;-63
2022/10/04 07:16:54;;;;;;;;;;;;;;;;;;5130198;27;20046;-63
2022/10/04 07:19:27;;;;;;;14.60;10.68;;;;;;;;;;5141695;27;46728;-64
2022/10/04 07:22:05;;;;;;;14.10;10.93;;;;;;;;;;5131208;27;20047;-63
2022/10/04 07:24:47;;;;;;;15.10;10.18;;;;;;;;;;5138333;27;20078;-62
2022/10/04 07:27:20;;;;;;;13.00;10.07;;;;;;;;;;5132493;27;20085;-63
2022/10/04 07:29:52;;;;;;;15.73;9.80;;;;;;;;;;5140256;27;20518;-63
2022/10/04 07:32:26;;;;;;;15.70;9.90;;;;;;;;;;5136241;27;20047;-63
2022/10/04 07:35:08;;;;;;;16.38;9.52;;;;;;;;;;5137556;27;20054;-64
2022/10/04 07:37:54;;;;;;;14.57;9.05;;;;;;;;;;5135015;27;20051;-63
2022/10/04 07:40:23;;;;;;;16.52;8.70;;;;;;;;;;5136635;27;20534;-63
2022/10/04 07:42:58;;;;;;;13.75;8.52;;;;;;;;;;5132527;27;20096;-63
2022/10/04 07:45:31;;;;;;;12.48;8.65;;;;;;;;;;5125028;27;20044;-63
2022/10/04 07:48:02;;;;;;;14.43;8.30;;;;;;;;;;5139412;27;20096;-63
2022/10/04 07:50:33;;;;;;;13.80;7.88;;;;;;;;;;5131085;27;20052;-63
2022/10/04 07:53:02;;;;;;;16.05;8.30;;;;;;;;;;5135252;27;20838;-63
2022/10/04 07:55:41;;;;;;;13.20;7.80;;;;;;;;;;5131291;27;20520;-64
2022/10/04 07:58:17;;;;;;;11.35;7.85;;;;;;;;;;5139101;27;20481;-63
2022/10/04 08:00:43;;;;;;;;;;;;;;;;;;5129996;27;20043;-63
2022/10/04 08:03:09;;;;;;;;;;;;;;;;;;5142551;27;45129;-64
2022/10/04 08:05:36;;;;;;;15.25;6.70;;;;;;;;;;5139969;27;45244;-63
2022/10/04 08:08:03;;;;;;;12.88;6.25;;;;;;;;;;5143808;27;20511;-64
2022/10/04 08:10:35;;;;;;;10.02;6.03;;;;;;;;;;5143305;27;20555;-63
2022/10/04 08:13:01;;;;;;;21.55;7.90;;;;;;;;;;5143942;27;20052;-63
2022/10/04 08:15:33;;;;;;;12.30;6.82;;;;;;;;;;5139609;27;20104;-62
2022/10/04 08:18:05;;;;;;;13.10;7.35;;;;;;;;;;5138852;27;20063;-63
2022/10/04 08:20:53;;;;;;;9.73;6.03;;;;;;;;;;5141809;27;20086;-63
2022/10/04 08:23:28;;;;;;;12.55;7.10;;;;;;;;;;5139235;27;20516;-63
2022/10/04 08:25:57;;;;;;;19.88;7.10;;;;;;;;;;5144932;27;20090;-63
2022/10/04 08:31:31;;;;;;;10.65;7.05;;;;;;;;;;5138272;27;20074;-63
2022/10/04 08:34:03;;;;;;;10.88;6.97;;;;;;;;;;5085973;28;20135;-63
2022/10/04 08:36:32;;;;;;;10.40;7.13;;;;;;;;;;5097769;28;20159;-63
2022/10/04 08:38:58;;;;;;;14.05;6.63;;;;;;;;;;5086695;28;20110;-63
2022/10/04 08:41:44;;;;;;;11.95;6.82;;;;;;;;;;5099479;28;20060;-63
2022/10/04 08:44:22;;;;;;;11.90;6.57;;;;;;;;;;5093858;28;20487;-64
2022/10/04 08:46:58;;;;;;;13.85;7.05;;;;;;;;;;5090291;28;20048;-63
2022/10/04 08:49:43;;;;;;;21.40;7.43;;;;;;;;;;5099438;28;20106;-63
2022/10/04 08:52:09;;;;;;;10.50;7.15;;;;;;;;;;5070767;28;20044;-63
2022/10/04 08:54:55;;;;;;;12.48;7.35;;;;;;;;;;5093030;28;20064;-64
2022/10/04 08:57:28;;;;;;;11.48;6.38;;;;;;;;;;5090293;28;20067;-64
2022/10/04 09:00:14;;;;;;;11.80;6.97;;;;;;;;;;5091450;27;20092;-62
2022/10/04 09:02:46;;;;;;;13.55;6.57;;;;;;;;;;5095168;28;20063;-63
2022/10/04 09:05:19;;;;;;;13.25;5.95;;;;;;;;;;5094859;28;20537;-63
2022/10/04 09:08:03;;;;;;;8.13;6.45;;;;;;;;;;5099479;28;20529;-62
2022/10/04 09:10:46;;;;;;;18.08;6.78;;;;;;;;;;5098127;27;20063;-63
2022/10/04 09:13:21;;;;;;;12.05;6.80;;;;;;;;;;5145141;27;20140;-63
2022/10/04 09:15:51;;;;;;;12.63;6.30;;;;;;;;;;5143428;27;20395;-63
2022/10/04 09:18:25;;;;;;;12.27;7.03;;;;;;;;;;5143833;27;20828;-63
2022/10/04 09:21:11;;;;;;;8.65;6.30;;;;;;;;;;5123425;27;20572;-63
2022/10/04 09:23:37;;;;;;;;;;;;;;;;;;5129915;27;20905;-63
2022/10/04 09:26:12;;;;;;;9.73;6.55;;;;;;;;;;5130746;27;43606;-62
2022/10/04 09:28:42;;;;;;;8.23;6.30;;;;;;;;;;5139828;27;20105;-62
2022/10/04 09:31:11;;;;;;;11.13;6.50;;;;;;;;;;5133065;27;20055;-62
2022/10/04 09:33:47;;;;;;;9.45;6.78;;;;;;;;;;5130743;27;20505;-62
2022/10/04 09:36:13;;;;;;;;;;;;;;;;;;5137686;27;20078;-62
2022/10/04 09:38:51;;;;;;;9.68;6.18;;;;;;;;;;5125514;27;44856;-62
2022/10/04 09:41:50;;;;;;;8.15;6.88;;;;;;;;;;5134795;27;20500;-62
2022/10/04 09:44:44;;;;;;;10.70;6.13;;;;;;;;;;5142200;27;20055;-63
2022/10/04 09:47:23;;;;;;;13.88;6.45;;;;;;;;;;5134165;27;20077;-62
2022/10/04 09:50:25;;;;;;;11.77;5.53;;;;;;;;;;5124045;27;20078;-63
2022/10/04 09:52:52;;;;;;;13.50;6.53;;;;;;;;;;5056255;28;20694;-62
2022/10/04 09:55:24;;;;;;;9.73;6.55;;;;;;;;;;5057827;28;20053;-62
2022/10/04 09:57:52;;;;;;;9.63;6.28;;;;;;;;;;5054513;28;20053;-64
2022/10/04 10:00:22;;;;;;;20.98;7.85;;;;;;;;;;5046547;28;20049;-62
2022/10/04 10:03:07;;;;;;;9.15;5.72;;;;;;;;;;5059167;28;20049;-62
2022/10/04 10:05:58;;;;;;;12.65;6.88;;;;;;;;;;5052435;28;20725;-62
2022/10/04 10:08:31;;;;;;;12.57;6.20;;;;;;;;;;5055065;28;20045;-62
2022/10/04 10:14:04;;;;;;;9.80;6.18;;;;;;;;;;5058684;28;20060;-62
2022/10/04 10:16:50;;;;;;;11.65;6.97;;;;;;;;;;5055181;28;20056;-63
2022/10/04 10:19:22;;;;;;;13.98;6.88;;;;;;;;;;5056956;28;20657;-62
2022/10/04 10:21:58;;;;;;;9.07;5.63;;;;;;;;;;5043343;28;20053;-63
2022/10/04 10:24:42;;;;;;;12.73;6.28;;;;;;;;;;5059030;28;20117;-63
2022/10/04 10:27:27;;;;;;;11.57;6.32;;;;;;;;;;5039305;28;20050;-63
2022/10/04 10:29:58;;;;;;;10.27;5.90;;;;;;;;;;5128588;27;20051;-64
2022/10/04 10:32:53;;;;;;;12.38;5.43;;;;;;;;;;5144639;27;20169;-63
2022/10/04 10:35:33;;;;;;;12.43;6.32;;;;;;;;;;5143319;27;20120;-62
2022/10/04 10:37:59;;;;;;;10.75;6.07;;;;;;;;;;5139929;27;20047;-63
2022/10/04 10:40:36;;;;;;;9.50;6.25;;;;;;;;;;5140970;27;20051;-63
2022/10/04 10:43:05;;;;;;;9.35;5.97;;;;;;;;;;5142468;27;20058;-63
2022/10/04 10:45:43;;;;;;;11.57;6.18;;;;;;;;;;5132886;27;20051;-62
2022/10/04 10:48:16;;;;;;;9.57;5.25;;;;;;;;;;5137837;27;20178;-61
2022/10/04 10:50:59;;;;;;;11.10;6.05;;;;;;;;;;5138258;27;20563;-62
2022/10/04 10:53:44;;;;;;;8.82;5.22;;;;;;;;;;5141617;27;20063;-62
2022/10/04 10:56:29;;;;;;;7.80;5.15;;;;;;;;;;5132135;27;20054;-62
2022/10/04 10:59:11;;;;;;;8.65;6.20;;;;;;;;;;5138477;27;20051;-61
2022/10/04 11:02:08;;;;;;;10.10;6.07;;;;;;;;;;5140737;27;20050;-62
2022/10/04 11:04:35;;;;;;;10.32;6.03;;;;;;;;;;5142735;27;20055;-62
2022/10/04 11:07:15;;;;;;;7.57;5.38;;;;;;;;;;5131399;27;20047;-63
2022/10/04 11:09:41;;;;;;;12.10;5.18;;;;;;;;;;5126058;27;20532;-62
2022/10/04 11:12:33;;;;;;;8.07;5.00;;;;;;;;;;5135598;27;20515;-62
2022/10/04 11:15:19;;;;;;;11.52;4.78;;;;;;;;;;5128029;27;20496;-62
2022/10/04 11:17:56;;;;;;;8.60;4.55;;;;;;;;;;5136095;27;20044;-61
2022/10/04 11:20:29;;;;;;;11.77;5.18;;;;;;;;;;5135520;27;20159;-60
2022/10/04 11:23:11;;;;;;;6.55;4.45;;;;;;;;;;5123110;27;20054;-62
2022/10/04 11:25:57;;;;;;;13.90;4.93;;;;;;;;;;5138150;27;20508;-61
2022/10/04 11:28:23;;;;;;;10.18;4.88;;;;;;;;;;5138046;27;20294;-60
2022/10/04 11:31:08;;;;;;;9.82;4.80;;;;;;;;;;5134585;27;20051;-60
2022/10/04 11:33:35;;;;;;;7.15;4.40;;;;;;;;;;5147221;27;20081;-62
2022/10/04 11:36:08;;;;;;;7.43;4.75;;;;;;;;;;5142588;27;20055;-61
2022/10/04 11:38:41;;;;;;;5.75;4.00;;;;;;;;;;5146044;27;20075;-61
2022/10/04 11:41:13;;;;;;;6.15;4.78;;;;;;;;;;5133357;27;20062;-60
2022/10/04 11:43:45;;;;;;;6.75;3.83;;;;;;;;;;5139411;27;20051;-61
2022/10/04 11:46:18;;;;;;;9.52;4.93;;;;;;;;;;5134994;27;20130;-62
2022/10/04 11:49:02;;;;;;;7.88;4.47;;;;;;;;;;5134586;27;20168;-61
2022/10/04 11:51:43;;;;;;;7.65;3.78;;;;;;;;;;5140391;27;20268;-61
2022/10/04 11:54:15;;;;;;;7.63;4.03;;;;;;;;;;5140531;27;20141;-61
2022/10/04 11:57:05;;;;;;;7.47;3.53;;;;;;;;;;5135438;27;20055;-61
2022/10/04 11:59:31;;;;;;;7.57;4.43;;;;;;;;;;5143370;27;20153;-62
2022/10/04 12:02:06;;;;;;;7.45;4.05;;;;;;;;;;5144092;27;20043;-63
2022/10/04 12:04:38;;;;;;;6.70;3.85;;;;;;;;;;5126472;27;20056;-62
2022/10/04 12:07:07;;;;;;;6.55;3.97;;;;;;;;;;5142934;27;20043;-61
2022/10/04 12:09:39;;;;;;;6.55;3.40;;;;;;;;;;5145886;27;20080;-62
2022/10/04 12:14:57;;;;;;;7.03;4.07;;;;;;;;;;5125437;27;20051;-62
2022/10/04 12:17:43;;;;;;;11.35;4.78;;;;;;;;;;5125635;27;20047;-62
2022/10/04 12:20:18;;;;;;;8.98;4.45;;;;;;;;;;5136553;27;20055;-62
2022/10/04 12:23:05;;;;;;;6.22;3.55;;;;;;;;;;5144562;27;20051;-61
2022/10/04 12:25:34;;;;;;;7.28;4.00;;;;;;;;;;5121027;27;20622;-62
2022/10/04 12:28:25;;;;;;;6.45;3.90;;;;;;;;;;5131740;27;20047;-61
2022/10/04 12:31:31;;;;;;;5.78;3.90;;;;;;;;;;5143683;27;20134;-62
2022/10/04 12:34:03;;;;;;;6.38;4.13;;;;;;;;;;5060095;28;20049;-62
2022/10/04 12:36:42;;;;;;;7.28;4.25;;;;;;;;;;5051057;28;20097;-60
2022/10/04 12:39:17;;;;;;;7.38;3.75;;;;;;;;;;5039544;28;20057;-62
2022/10/04 12:41:59;;;;;;;4.63;3.30;;;;;;;;;;5043127;28;20061;-62
2022/10/04 12:44:51;;;;;;;8.73;3.67;;;;;;;;;;5042297;28;20049;-62
2022/10/04 12:47:38;;;;;;;8.10;3.88;;;;;;;;;;5040886;28;20053;-62
2022/10/04 12:50:04;;;;;;;7.22;3.20;;;;;;;;;;5040193;28;20057;-62
2022/10/04 12:52:40;;;;;;;8.07;3.75;;;;;;;;;;5050552;28;20053;-62
2022/10/04 12:55:25;;;;;;;10.15;3.53;;;;;;;;;;5051278;28;20049;-62
2022/10/04 12:58:11;;;;;;;8.75;3.40;;;;;;;;;;5056171;28;20037;-63
2022/10/04 13:00:41;;;;;;;6.28;3.00;;;;;;;;;;5059307;28;20045;-62
2022/10/04 13:03:28;;;;;;;11.82;2.83;;;;;;;;;;5058944;28;20434;-61
2022/10/04 13:06:03;;;;;;;3.85;2.75;;;;;;;;;;5124911;27;20043;-63
2022/10/04 13:08:30;;;;;;;;;;;;;;;;;;5130825;27;20055;-62
2022/10/04 13:11:15;;;;;;;5.78;3.38;;;;;;;;;;5125248;27;46274;-63
2022/10/04 13:13:57;;;;;;;5.40;3.08;;;;;;;;;;5124133;27;20051;-62
2022/10/04 13:16:42;;;;;;;7.45;3.45;;;;;;;;;;5139262;27;20515;-62
2022/10/04 13:19:28;;;;;;;9.15;3.78;;;;;;;;;;5137246;27;20058;-62
2022/10/04 13:22:00;;;;;;;8.15;3.70;;;;;;;;;;5144267;27;20514;-62
2022/10/04 13:24:53;;;;;;;5.55;3.05;;;;;;;;;;5134888;27;20452;-60
2022/10/04 13:27:21;;;;;;;8.32;3.80;;;;;;;;;;5137941;27;20140;-63
2022/10/04 13:30:07;;;;;;;8.68;3.83;;;;;;;;;;5126101;27;20055;-63
2022/10/04 13:32:41;;;;;;;8.13;3.88;;;;;;;;;;5128371;27;20047;-63
2022/10/04 13:35:17;;;;;;;7.25;3.70;;;;;;;;;;5134576;27;20146;-62
2022/10/04 13:37:59;;;;;;;7.18;4.32;;;;;;;;;;5131343;27;20150;-61
2022/10/04 13:40:25;;;;;;;7.63;4.03;;;;;;;;;;5141508;27;20070;-63
2022/10/04 13:42:54;;;;;;;7.00;3.80;;;;;;;;;;5139817;27;20062;-63
2022/10/04 13:45:39;;;;;;;8.30;3.80;;;;;;;;;;5138409;27;20547;-62
2022/10/04 13:48:09;;;;;;;7.88;3.80;;;;;;;;;;5131407;27;20052;-62
2022/10/04 13:50:44;;;;;;;8.20;3.63;;;;;;;;;;5122567;27;20051;-62
2022/10/04 13:56:39;;;;;;;7.05;4.45;;;;;;;;;;5129638;27;20089;-62
2022/10/04 13:59:17;;;;;;;10.10;5.55;;;;;;;;;;5131744;27;20056;-61
2022/10/04 14:01:53;;;;;;;7.32;4.45;;;;;;;;;;5138506;27;20416;-62
2022/10/04 14:04:19;;;;;;;;;;;;;;;;;;5141147;27;20472;-63
2022/10/04 14:06:51;;;;;;;5.47;3.75;;;;;;;;;;5139145;27;45418;-62
2022/10/04 14:09:21;;;;;;;4.95;3.35;;;;;;;;;;5134777;27;20043;-62
2022/10/04 14:11:55;;;;;;;7.28;3.97;;;;;;;;;;5143845;27;20512;-60
2022/10/04 14:14:34;;;;;;;9.35;3.47;;;;;;;;;;5142965;27;20055;-62
2022/10/04 14:17:06;;;;;;;6.50;4.38;;;;;;;;;;5142525;27;20054;-63
2022/10/04 14:19:35;;;;;;;7.57;3.78;;;;;;;;;;5117698;27;20050;-62
2022/10/04 14:22:21;;;;;;;8.32;4.43;;;;;;;;;;5130215;27;20515;-62
2022/10/04 14:25:06;;;;;;;5.82;3.65;;;;;;;;;;5132115;27;20051;-62
2022/10/04 14:27:32;;;;;;;5.43;3.47;;;;;;;;;;5122554;27;20312;-63
2022/10/04 14:30:06;;;;;;;5.75;3.58;;;;;;;;;;5131579;27;20513;-63
2022/10/04 14:32:33;;;;;;;10.05;3.38;;;;;;;;;;5126024;27;20104;-63
2022/10/04 14:35:08;;;;;;;8.82;4.03;;;;;;;;;;5113431;22;20052;-68
2022/10/04 14:37:36;;;;;;;;;;;;;;;;;;5049463;28;20053;-68
2022/10/04 14:40:21;;;;;;;8.40;4.50;;;;;;;;;;5054227;28;45015;-68
2022/10/04 14:43:02;;;;;;;5.93;3.30;;;;;;;;;;5054932;28;20836;-67
2022/10/04 14:45:33;;;;;;;5.93;3.53;;;;;;;;;;5056499;28;20279;-69
2022/10/04 14:48:19;;;;;;;10.18;5.13;;;;;;;;;;5061403;28;20057;-67
2022/10/04 14:50:58;;;;;;;5.90;3.80;;;;;;;;;;5056615;28;20443;-68
2022/10/04 14:53:30;;;;;;;4.97;3.50;;;;;;;;;;5060817;28;20052;-69
2022/10/04 14:55:56;;;;;;;4.82;3.80;;;;;;;;;;5061459;28;20060;-68
2022/10/04 14:58:39;;;;;;;6.03;3.75;;;;;;;;;;5060104;28;20482;-68
2022/10/04 15:01:05;;;;;;;6.30;3.42;;;;;;;;;;5056561;28;20045;-68
2022/10/04 15:03:33;;;;;;;7.82;4.20;;;;;;;;;;5061021;28;20501;-68
2022/10/04 15:06:09;;;;;;;7.55;4.00;;;;;;;;;;5061229;28;20060;-67
2022/10/04 15:08:55;;;;;;;7.15;3.35;;;;;;;;;;5059445;28;20045;-68
2022/10/04 15:11:39;;;;;;;8.52;3.70;;;;;;;;;;5059582;28;20072;-68
2022/10/04 15:14:26;;;;;;;7.30;3.10;;;;;;;;;;5060386;28;20565;-67
2022/10/04 15:16:57;;;;;;;9.30;3.92;;;;;;;;;;5060100;28;20748;-68
2022/10/04 15:19:29;;;;;;;6.65;3.97;;;;;;;;;;5059817;28;20148;-67
2022/10/04 15:22:02;;;;;;;8.88;4.13;;;;;;;;;;5059717;28;20055;-68
2022/10/04 15:24:28;;;;;;;5.72;3.30;;;;;;;;;;5059937;28;20057;-68
2022/10/04 15:27:14;;;;;;;6.80;4.15;;;;;;;;;;5061185;28;20109;-67
2022/10/04 15:29:59;;;;;;;6.45;3.80;;;;;;;;;;5058925;28;20978;-68